KRZR

Cleveland Regional Jetport Airport

Cleveland, Tennessee, USA
METAR KRZR 171755Z AUTO 03006KT 10SM CLR 18/08 A3026 RMK A01
Observed Flight Rules
Oct-17 @ 17:55 UTC (25 minutes ago) Visual Flight Rules
Wind Visibility Clouds
30° at 6 knots 10 miles
  • Clear skies
Temperatures Readings
Current 18°C / 64°F
Dewpoint 8°C / 46°F
Humidity 52%
Altimeter 30.26" Hg
Pressure 1025 hPa
Elevation 263
METAR KRZR 171755Z AUTO 03006KT 10SM CLR 18/08 A3026 RMK A01
Observed Flight Rules
Oct-17 @ 17:55 UTC
(25 minutes ago)
VFR
Wind Visibility
30° at 6 knots 10 miles
Clouds
  • Clear skies
Temperature Dewpoint
18°C / 64°F 8°C / 46°F
Humidity Altimeter Pressure
52% 30.26" Hg 1025 hPa